createdAt,value
2023-05-24T00:01:26.029Z,6.70
2023-05-24T00:07:19.500Z,5.10
2023-05-24T00:13:12.985Z,6.30
2023-05-24T00:19:07.836Z,4.93
2023-05-24T00:25:01.265Z,6.70
2023-05-24T00:30:54.714Z,4.83
2023-05-24T00:36:49.560Z,6.27
2023-05-24T00:42:43.026Z,5.57
2023-05-24T00:48:36.843Z,5.70
2023-05-24T00:54:32.583Z,5.77
2023-05-24T01:00:26.808Z,5.07
2023-05-24T01:06:20.310Z,5.33
2023-05-24T01:12:26.232Z,6.60
2023-05-24T01:18:26.640Z,6.90
2023-05-24T01:24:26.929Z,5.83
2023-05-24T01:30:21.980Z,5.50
2023-05-24T01:36:15.438Z,5.83
2023-05-24T01:42:26.322Z,5.27
2023-05-24T01:48:26.113Z,7.03
2023-05-24T01:54:24.560Z,5.87
2023-05-24T02:00:20.961Z,5.60
2023-05-24T02:06:15.860Z,5.37
2023-05-24T02:12:10.772Z,6.13
2023-05-24T02:18:08.463Z,5.63
2023-05-24T02:24:03.323Z,6.07
2023-05-24T02:29:56.791Z,6.00
2023-05-24T02:35:50.498Z,5.90
2023-05-24T02:41:45.349Z,5.30
2023-05-24T02:47:38.834Z,5.80
2023-05-24T02:53:32.931Z,5.57
2023-05-24T02:59:27.908Z,5.73
2023-05-24T03:05:21.567Z,5.53
2023-05-24T03:11:15.951Z,5.50
2023-05-24T03:17:10.880Z,5.43
2023-05-24T03:23:04.359Z,5.80
2023-05-24T03:28:58.429Z,5.17
2023-05-24T03:35:01.194Z,5.03
2023-05-24T03:40:54.886Z,5.63
2023-05-24T03:46:48.426Z,5.40
2023-05-24T03:52:44.075Z,5.03
2023-05-24T03:58:37.855Z,5.93
2023-05-24T04:04:32.448Z,5.90
2023-05-24T04:10:27.265Z,5.90
2023-05-24T04:16:21.606Z,7.07
2023-05-24T04:22:15.112Z,7.80
2023-05-24T04:28:10.188Z,5.87
2023-05-24T04:34:03.283Z,6.20
2023-05-24T04:39:56.806Z,5.90
2023-05-24T04:45:51.662Z,5.50
2023-05-24T04:51:45.134Z,5.17
2023-05-24T04:57:38.636Z,8.10
2023-05-24T05:03:33.096Z,5.90
2023-05-24T05:09:26.676Z,6.73
2023-05-24T05:15:19.801Z,5.87
2023-05-24T05:21:14.426Z,6.67
2023-05-24T05:27:08.974Z,6.10
2023-05-24T05:33:02.705Z,6.20
2023-05-24T05:38:57.811Z,6.67
2023-05-24T05:44:52.963Z,5.73
2023-05-24T05:50:46.430Z,6.90
2023-05-24T05:56:45.831Z,7.40
2023-05-24T06:02:43.893Z,6.43
2023-05-24T06:08:37.378Z,5.93
2023-05-24T06:14:32.612Z,6.07
2023-05-24T06:20:26.302Z,6.90
2023-05-24T06:26:21.715Z,6.57
2023-05-24T06:32:16.477Z,7.10
2023-05-24T06:38:09.878Z,7.77
2023-05-24T06:44:03.386Z,8.30
2023-05-24T06:49:58.518Z,8.53
2023-05-24T06:55:52.278Z,6.70
2023-05-24T07:01:45.330Z,8.23
2023-05-24T07:07:40.763Z,6.23
2023-05-24T07:13:33.930Z,7.70
2023-05-24T07:19:30.021Z,6.23
2023-05-24T07:25:24.809Z,7.00
2023-05-24T07:31:18.299Z,5.73
2023-05-24T07:37:11.842Z,4.07
2023-05-24T07:43:06.716Z,4.10
2023-05-24T07:48:59.900Z,6.13
2023-05-24T07:54:53.849Z,7.10
2023-05-24T08:00:48.845Z,5.20
2023-05-24T08:06:41.917Z,7.10
2023-05-24T08:12:34.958Z,6.43
2023-05-24T08:18:29.776Z,5.63
2023-05-24T08:24:22.818Z,6.13
2023-05-24T08:30:16.037Z,7.00
2023-05-24T08:36:11.255Z,6.10
2023-05-24T08:42:09.959Z,5.27
2023-05-24T08:48:04.510Z,6.13
2023-05-24T08:54:00.833Z,5.83
2023-05-24T08:59:56.349Z,6.50
2023-05-24T09:05:49.798Z,5.57
2023-05-24T09:11:46.476Z,6.50
2023-05-24T09:17:40.996Z,5.60
2023-05-24T09:23:34.735Z,9.00
2023-05-24T09:29:29.684Z,5.90
2023-05-24T09:35:22.998Z,7.37
2023-05-24T09:41:16.495Z,5.90
2023-05-24T09:47:12.662Z,6.57
2023-05-24T09:53:06.510Z,6.50
2023-05-24T09:58:59.961Z,5.30
2023-05-24T10:05:00.324Z,5.70
2023-05-24T10:10:54.078Z,5.57
2023-05-24T10:16:47.706Z,4.90
2023-05-24T10:22:45.634Z,5.70
2023-05-24T10:28:43.782Z,4.97
2023-05-24T10:34:38.014Z,5.20
2023-05-24T10:40:33.714Z,4.73
2023-05-24T10:46:27.266Z,5.03
2023-05-24T10:52:21.378Z,4.40
2023-05-24T10:58:16.317Z,4.80
2023-05-24T11:04:10.431Z,4.33
2023-05-24T11:10:10.861Z,4.33
2023-05-24T11:16:05.815Z,4.20
2023-05-24T11:21:59.790Z,4.50
2023-05-24T11:27:54.064Z,4.27
2023-05-24T11:33:48.502Z,6.30
2023-05-24T11:39:41.780Z,4.27
2023-05-24T11:45:36.266Z,4.27
2023-05-24T11:51:32.229Z,4.37
2023-05-24T11:57:31.579Z,4.60
2023-05-24T12:03:25.188Z,4.30
2023-05-24T12:09:19.729Z,4.20
2023-05-24T12:15:14.748Z,4.07
2023-05-24T12:21:12.543Z,4.83
2023-05-24T12:27:09.417Z,3.87
2023-05-24T12:33:02.710Z,4.03
2023-05-24T12:38:58.869Z,4.27
2023-05-24T12:44:54.361Z,4.03
2023-05-24T12:50:47.413Z,4.87
2023-05-24T12:56:40.465Z,4.60
2023-05-24T13:02:36.510Z,4.60
2023-05-24T13:08:30.974Z,4.00
2023-05-24T13:14:24.056Z,4.50
2023-05-24T13:20:22.024Z,4.43
2023-05-24T13:26:15.377Z,4.03
2023-05-24T13:32:08.827Z,5.03
2023-05-24T13:38:04.498Z,4.20
2023-05-24T13:43:58.331Z,3.57
2023-05-24T13:49:51.884Z,4.13
2023-05-24T13:55:46.268Z,4.40
2023-05-24T14:01:40.058Z,3.77
2023-05-24T14:07:33.576Z,3.63
2023-05-24T14:19:24.365Z,3.80
2023-05-24T14:25:17.851Z,3.60
2023-05-24T14:31:12.773Z,3.77
2023-05-24T14:37:06.791Z,3.10
2023-05-24T14:42:59.878Z,3.70
2023-05-24T14:48:54.801Z,4.80
2023-05-24T14:54:47.846Z,3.23
2023-05-24T15:00:44.429Z,4.10
2023-05-24T15:06:39.925Z,4.07
2023-05-24T15:12:32.928Z,3.83
2023-05-24T15:18:27.953Z,4.07
2023-05-24T15:24:22.367Z,4.33
2023-05-24T15:30:17.765Z,4.27
2023-05-24T15:36:14.625Z,4.23
2023-05-24T15:42:09.788Z,5.17
2023-05-24T15:48:04.823Z,8.23
2023-05-24T15:53:58.388Z,5.50
2023-05-24T15:59:54.737Z,6.07
2023-05-24T16:05:48.690Z,6.23
2023-05-24T16:11:42.278Z,6.73
2023-05-24T16:17:37.165Z,6.50
2023-05-24T16:23:30.735Z,6.83
2023-05-24T16:29:23.803Z,6.90
2023-05-24T16:35:18.722Z,5.63
2023-05-24T16:41:12.934Z,6.07
2023-05-24T16:47:06.744Z,5.30
2023-05-24T16:53:01.617Z,7.83
2023-05-24T16:58:54.621Z,5.47
2023-05-24T17:04:47.689Z,5.93
2023-05-24T17:10:43.622Z,6.17
2023-05-24T17:16:37.203Z,6.40
2023-05-24T17:22:30.831Z,6.00
2023-05-24T17:28:27.964Z,5.93
2023-05-24T17:34:20.961Z,6.07
2023-05-24T17:40:14.467Z,5.63
2023-05-24T17:46:09.491Z,6.40
2023-05-24T17:52:02.674Z,6.33
2023-05-24T17:57:55.816Z,6.70
2023-05-24T18:03:50.647Z,5.60
2023-05-24T18:09:43.638Z,6.60
2023-05-24T18:15:36.798Z,6.10
2023-05-24T18:21:32.802Z,6.30
2023-05-24T18:27:27.000Z,5.93
2023-05-24T18:33:20.181Z,6.13
2023-05-24T18:39:15.362Z,5.60
2023-05-24T18:45:09.747Z,6.70
2023-05-24T18:51:04.045Z,5.97
2023-05-24T18:57:02.036Z,5.83
2023-05-24T19:02:55.922Z,7.07
2023-05-24T19:08:49.560Z,5.83
2023-05-24T19:14:44.456Z,5.80
2023-05-24T19:20:38.128Z,6.50
2023-05-24T19:26:31.206Z,5.90
2023-05-24T19:32:25.714Z,5.40
2023-05-24T19:38:20.131Z,5.43
2023-05-24T19:44:13.682Z,7.23
2023-05-24T19:50:09.809Z,5.83
2023-05-24T19:56:03.063Z,6.30
2023-05-24T20:01:56.570Z,6.00
2023-05-24T20:07:51.622Z,5.53
2023-05-24T20:13:45.131Z,5.30
2023-05-24T20:19:38.633Z,6.13
2023-05-24T20:25:33.467Z,6.33
2023-05-24T20:31:26.965Z,5.97
2023-05-24T20:37:20.460Z,6.70
2023-05-24T20:43:15.480Z,5.70
2023-05-24T20:49:09.002Z,6.80
2023-05-24T20:55:02.700Z,6.60
2023-05-24T21:00:57.657Z,7.10
2023-05-24T21:06:51.168Z,7.77
2023-05-24T21:12:44.662Z,9.57
2023-05-24T21:18:39.465Z,7.90
2023-05-24T21:24:32.922Z,9.67
2023-05-24T21:30:26.408Z,9.10
2023-05-24T21:36:21.288Z,8.63
2023-05-24T21:42:14.816Z,8.63
2023-05-24T21:48:08.766Z,9.50
2023-05-24T21:54:03.690Z,7.80
2023-05-24T21:59:58.001Z,8.57
2023-05-24T22:05:51.543Z,7.80
2023-05-24T22:11:46.773Z,7.77
2023-05-24T22:17:41.356Z,6.80
2023-05-24T22:23:34.903Z,7.97
2023-05-24T22:29:29.768Z,6.30
2023-05-24T22:35:23.313Z,7.60
2023-05-24T22:41:16.789Z,8.03
2023-05-24T22:47:14.321Z,7.37
2023-05-24T22:53:09.598Z,7.80
2023-05-24T22:59:03.075Z,7.70
2023-05-24T23:04:57.934Z,9.50
2023-05-24T23:10:52.729Z,9.17
2023-05-24T23:16:46.462Z,9.23
2023-05-24T23:22:41.471Z,8.80
2023-05-24T23:28:35.073Z,7.83
2023-05-24T23:34:28.761Z,7.70
2023-05-24T23:40:23.696Z,7.93
2023-05-24T23:46:17.792Z,8.30
2023-05-24T23:52:11.245Z,8.23
2023-05-24T23:58:08.288Z,7.60
